createdAt,value
2023-04-05T00:04:13.098Z,24.90
2023-04-05T00:07:13.168Z,24.90
2023-04-05T00:13:11.542Z,24.90
2023-04-05T00:16:08.652Z,24.90
2023-04-05T00:25:54.470Z,24.90
2023-04-05T00:28:26.398Z,24.90
2023-04-05T00:37:52.658Z,24.81
2023-04-05T00:40:28.692Z,24.89
2023-04-05T00:43:57.628Z,24.87
2023-04-05T00:46:28.942Z,24.88
2023-04-05T00:49:14.224Z,24.89
2023-04-05T00:55:21.779Z,24.90
2023-04-05T00:59:07.800Z,24.78
2023-04-05T01:01:38.842Z,24.90
2023-04-05T01:04:14.735Z,24.90
2023-04-05T01:13:41.864Z,24.90
2023-04-05T01:16:15.446Z,24.90
2023-04-05T01:19:36.149Z,24.90
2023-04-05T01:29:40.451Z,24.90
2023-04-05T01:32:16.276Z,24.89
2023-04-05T01:35:19.385Z,24.87
2023-04-05T01:37:51.463Z,24.87
2023-04-05T01:40:29.965Z,24.89
2023-04-05T01:43:28.545Z,24.89
2023-04-05T01:46:01.869Z,24.89
2023-04-05T01:56:06.422Z,24.90
2023-04-05T01:58:36.651Z,24.90
2023-04-05T02:01:08.864Z,24.90
2023-04-05T02:04:32.910Z,24.89
2023-04-05T02:07:15.627Z,24.85
2023-04-05T02:14:16.329Z,24.89
2023-04-05T02:16:46.575Z,24.89
2023-04-05T02:19:16.800Z,24.88
2023-04-05T02:22:00.235Z,24.88
2023-04-05T02:34:34.421Z,24.94
2023-04-05T02:37:11.049Z,24.89
2023-04-05T02:43:35.626Z,24.90
2023-04-05T02:49:46.764Z,24.89
2023-04-05T02:52:42.644Z,24.89
2023-04-05T02:55:48.732Z,24.88
2023-04-05T02:58:36.052Z,24.75
2023-04-05T03:04:44.276Z,24.91
2023-04-05T03:07:42.682Z,24.87
2023-04-05T03:16:17.485Z,24.88
2023-04-05T03:19:08.113Z,24.87
2023-04-05T03:25:19.907Z,24.88
2023-04-05T03:31:57.676Z,24.86
2023-04-05T03:34:56.469Z,24.87
2023-04-05T03:37:32.968Z,24.87
2023-04-05T03:40:47.482Z,24.86
2023-04-05T03:43:37.684Z,24.86
2023-04-05T03:46:37.892Z,24.87
2023-04-05T03:55:40.953Z,24.90
2023-04-05T04:07:42.554Z,24.85
2023-04-05T04:13:36.571Z,24.85
2023-04-05T04:16:47.226Z,24.84
2023-04-05T04:22:43.652Z,24.85
2023-04-05T04:29:02.246Z,24.83
2023-04-05T04:32:04.919Z,24.83
2023-04-05T04:34:42.733Z,24.83
2023-04-05T04:37:41.243Z,24.81
2023-04-05T04:46:47.870Z,24.81
2023-04-05T04:50:14.340Z,24.80
2023-04-05T04:53:14.579Z,24.80
2023-04-05T04:56:11.578Z,24.80
2023-04-05T05:05:10.471Z,24.79
2023-04-05T05:08:46.154Z,24.79
2023-04-05T05:11:29.502Z,24.77
2023-04-05T05:17:17.518Z,24.77
2023-04-05T05:20:15.581Z,24.76
2023-04-05T05:22:46.871Z,24.76
2023-04-05T05:25:48.872Z,24.75
2023-04-05T05:28:59.797Z,24.75
2023-04-05T05:32:06.705Z,24.75
2023-04-05T05:49:42.605Z,24.79
2023-04-05T05:52:35.650Z,24.74
2023-04-05T06:09:27.029Z,24.80
2023-04-05T06:15:16.790Z,24.64
2023-04-05T06:18:12.103Z,24.71
2023-04-05T06:21:19.811Z,24.71
2023-04-05T06:23:49.968Z,24.71
2023-04-05T06:26:25.051Z,24.70
2023-04-05T06:29:11.224Z,24.70
2023-04-05T06:32:11.713Z,24.70
2023-04-05T06:35:28.130Z,24.69
2023-04-05T06:38:33.335Z,24.70
2023-04-05T06:46:56.769Z,24.60
2023-04-05T06:53:13.692Z,24.69
2023-04-05T06:55:59.438Z,24.69
2023-04-05T07:02:22.359Z,24.68
2023-04-05T07:05:22.783Z,24.68
2023-04-05T07:09:05.852Z,24.67
2023-04-05T07:11:37.278Z,24.67
2023-04-05T07:14:39.329Z,24.66
2023-04-05T07:17:24.455Z,24.66
2023-04-05T07:20:15.406Z,24.65
2023-04-05T07:26:31.586Z,24.57
2023-04-05T07:32:17.241Z,24.68
2023-04-05T07:35:07.084Z,24.64
2023-04-05T07:38:17.895Z,24.64
2023-04-05T07:41:21.600Z,24.64
2023-04-05T07:44:42.727Z,24.64
2023-04-05T07:47:26.120Z,24.64
2023-04-05T07:51:25.084Z,24.63
2023-04-05T07:56:52.162Z,24.63
2023-04-05T08:02:33.976Z,24.58
2023-04-05T08:05:58.577Z,24.61
2023-04-05T08:12:12.602Z,24.60
2023-04-05T08:14:49.092Z,24.59
2023-04-05T08:17:34.645Z,24.59
2023-04-05T08:20:30.898Z,24.58
2023-04-05T08:24:03.404Z,24.58
2023-04-05T08:26:47.153Z,24.57
2023-04-05T08:29:29.731Z,24.57
2023-04-05T08:32:36.122Z,24.56
2023-04-05T08:53:17.837Z,24.48
2023-04-05T08:56:35.963Z,24.48
2023-04-05T08:59:27.264Z,24.46
2023-04-05T09:02:40.291Z,24.45
2023-04-05T09:05:39.094Z,24.44
2023-04-05T09:08:46.719Z,24.41
2023-04-05T09:11:33.915Z,24.38
2023-04-05T09:14:36.771Z,24.37
2023-04-05T09:23:18.175Z,24.32
2023-04-05T09:32:32.442Z,24.28
2023-04-05T09:35:34.204Z,24.26
2023-04-05T09:38:27.500Z,24.10
2023-04-05T09:50:36.437Z,24.18
2023-04-05T09:54:09.094Z,24.16
2023-04-05T09:57:08.976Z,24.15
2023-04-05T10:00:05.982Z,24.13
2023-04-05T10:02:39.065Z,24.09
2023-04-05T10:08:39.278Z,24.07
2023-04-05T10:11:38.219Z,24.05
2023-04-05T10:18:01.363Z,24.03
2023-04-05T10:20:47.506Z,24.01
2023-04-05T10:23:49.764Z,23.98
2023-04-05T10:27:09.462Z,23.97
2023-04-05T10:30:27.285Z,23.96
2023-04-05T10:33:23.366Z,23.94
2023-04-05T10:36:23.733Z,23.89
2023-04-05T10:39:32.206Z,23.91
2023-04-05T10:42:31.990Z,23.88
2023-04-05T10:48:50.927Z,23.86
2023-04-05T10:51:20.941Z,23.77
2023-04-05T10:53:52.379Z,23.81
2023-04-05T10:56:40.359Z,23.80
2023-04-05T10:59:57.337Z,23.78
2023-04-05T11:02:40.002Z,23.75
2023-04-05T11:09:04.941Z,23.71
2023-04-05T11:12:09.136Z,23.71
2023-04-05T11:14:53.471Z,23.67
2023-04-05T11:18:13.996Z,23.65
2023-04-05T11:21:39.857Z,23.63
2023-04-05T11:25:02.573Z,23.62
2023-04-05T11:27:38.235Z,23.58
2023-04-05T11:30:09.051Z,23.56
2023-04-05T11:33:11.847Z,23.52
2023-04-05T11:35:56.678Z,23.51
2023-04-05T11:39:04.680Z,23.49
2023-04-05T11:45:26.795Z,23.45
2023-04-05T11:48:03.535Z,23.41
2023-04-05T12:00:04.059Z,23.33
2023-04-05T12:03:06.625Z,23.31
2023-04-05T12:05:54.075Z,23.29
2023-04-05T12:18:00.951Z,23.19
2023-04-05T12:30:02.595Z,23.11
2023-04-05T12:36:04.392Z,23.09
2023-04-05T12:38:38.498Z,23.01
2023-04-05T12:48:01.910Z,22.99
2023-04-05T12:51:41.219Z,22.98
2023-04-05T12:54:12.548Z,22.96
2023-04-05T13:00:24.982Z,22.92
2023-04-05T13:03:41.279Z,22.90
2023-04-05T13:06:19.031Z,22.88
2023-04-05T13:09:12.024Z,22.87
2023-04-05T13:11:58.445Z,22.86
2023-04-05T13:15:22.697Z,22.84
2023-04-05T13:18:06.193Z,22.82
2023-04-05T13:27:24.903Z,22.78
2023-04-05T13:29:58.698Z,22.77
2023-04-05T13:32:37.760Z,22.72
2023-04-05T13:38:14.604Z,22.73
2023-04-05T13:41:02.582Z,22.72
2023-04-05T13:43:39.448Z,22.70
2023-04-05T13:46:12.346Z,22.70
2023-04-05T13:48:42.830Z,22.69
2023-04-05T13:51:36.470Z,22.67
2023-04-05T13:57:15.744Z,22.69
2023-04-05T14:00:08.496Z,22.64
2023-04-05T14:03:19.296Z,22.62
2023-04-05T14:06:06.002Z,22.61
2023-04-05T14:08:59.890Z,22.60
2023-04-05T14:11:54.960Z,22.60
2023-04-05T14:18:14.752Z,22.57
2023-04-05T14:20:57.917Z,22.38
2023-04-05T14:23:41.691Z,22.54
2023-04-05T14:26:11.896Z,22.54
2023-04-05T14:28:41.776Z,22.52
2023-04-05T14:31:11.721Z,22.47
2023-04-05T14:33:41.835Z,22.50
2023-04-05T14:36:45.028Z,22.50
2023-04-05T14:39:27.704Z,22.50
2023-04-05T14:42:02.808Z,22.49
2023-04-05T14:48:45.178Z,22.45
2023-04-05T14:54:27.555Z,22.44
2023-04-05T14:57:07.811Z,22.43
2023-04-05T15:00:18.061Z,22.41
2023-04-05T15:15:21.585Z,22.37
2023-04-05T15:18:22.157Z,22.29
2023-04-05T15:21:05.114Z,22.29
2023-04-05T15:27:43.905Z,22.31
2023-04-05T15:31:01.877Z,22.30
2023-04-05T15:33:54.325Z,22.29
2023-04-05T15:36:45.302Z,22.28
2023-04-05T15:39:20.770Z,22.25
2023-04-05T15:42:31.437Z,22.27
2023-04-05T15:48:35.606Z,22.26
2023-04-05T15:51:28.848Z,22.22
2023-04-05T15:54:39.537Z,22.24
2023-04-05T15:57:43.892Z,22.24
2023-04-05T16:00:35.010Z,22.12
2023-04-05T16:03:24.352Z,22.23
2023-04-05T16:20:15.710Z,22.19
2023-04-05T16:22:46.453Z,22.19
2023-04-05T16:25:16.526Z,22.17
2023-04-05T16:27:46.561Z,22.17
2023-04-05T16:30:37.737Z,22.17
2023-04-05T16:33:54.968Z,22.17
2023-04-05T16:37:02.432Z,22.16
2023-04-05T16:40:08.559Z,22.12
2023-04-05T16:43:06.741Z,22.11
2023-04-05T16:46:07.424Z,22.13
2023-04-05T16:48:38.185Z,22.14
2023-04-05T16:54:45.656Z,22.16
2023-04-05T16:57:56.129Z,22.19
2023-04-05T17:04:10.139Z,22.22
2023-04-05T17:06:52.479Z,22.24
2023-04-05T17:10:04.132Z,22.25
2023-04-05T17:12:36.287Z,22.28
2023-04-05T17:15:49.542Z,22.30
2023-04-05T17:18:40.575Z,22.30
2023-04-05T17:21:59.286Z,22.33
2023-04-05T17:25:11.908Z,22.34
2023-04-05T17:27:58.908Z,22.35
2023-04-05T17:30:55.828Z,22.36
2023-04-05T17:33:28.893Z,22.30
2023-04-05T17:36:48.053Z,22.37
2023-04-05T17:39:48.182Z,22.38
2023-04-05T17:43:03.138Z,22.38
2023-04-05T17:46:07.539Z,22.39
2023-04-05T17:48:44.770Z,22.39
2023-04-05T17:54:44.451Z,22.45
2023-04-05T18:00:26.079Z,22.46
2023-04-05T18:05:44.104Z,22.42
2023-04-05T18:08:17.516Z,22.42
2023-04-05T18:10:47.568Z,22.42
2023-04-05T18:13:17.593Z,22.43
2023-04-05T18:15:50.259Z,22.43
2023-04-05T18:18:50.248Z,22.43
2023-04-05T18:24:58.544Z,22.43
2023-04-05T18:27:53.908Z,22.44
2023-04-05T18:31:00.809Z,22.43
2023-04-05T18:37:04.504Z,22.43
2023-04-05T18:39:34.696Z,22.44
2023-04-05T18:45:45.022Z,22.44
2023-04-05T18:48:36.333Z,22.44
2023-04-05T18:51:37.716Z,22.43
2023-04-05T18:54:45.570Z,22.43
2023-04-05T18:57:24.349Z,22.43
2023-04-05T18:59:54.615Z,22.44
2023-04-05T19:02:24.664Z,22.44
2023-04-05T19:04:55.590Z,22.44
2023-04-05T19:07:25.684Z,22.44
2023-04-05T19:09:56.728Z,22.44
2023-04-05T19:12:31.582Z,22.44
2023-04-05T19:15:02.190Z,22.44
2023-04-05T19:17:32.217Z,22.44
2023-04-05T19:20:02.380Z,22.44
2023-04-05T19:22:32.399Z,22.45
2023-04-05T19:25:05.661Z,22.46
2023-04-05T19:31:11.045Z,22.46
2023-04-05T19:33:48.504Z,22.46
2023-04-05T19:36:41.013Z,22.48
2023-04-05T19:39:37.564Z,22.46
2023-04-05T19:42:08.291Z,22.46
2023-04-05T19:44:53.200Z,22.46
2023-04-05T19:47:23.632Z,22.48
2023-04-05T19:49:55.838Z,22.48
2023-04-05T19:52:46.618Z,22.49
2023-04-05T19:55:36.370Z,22.49
2023-04-05T19:58:12.296Z,22.49
2023-04-05T20:00:51.191Z,22.46
2023-04-05T20:04:13.284Z,22.50
2023-04-05T20:10:06.219Z,22.51
2023-04-05T20:12:43.469Z,22.52
2023-04-05T20:18:02.809Z,22.52
2023-04-05T20:20:32.785Z,22.52
2023-04-05T20:23:02.710Z,22.52
2023-04-05T20:25:50.591Z,22.53
2023-04-05T20:28:40.442Z,22.54
2023-04-05T20:31:33.052Z,22.54
2023-04-05T20:34:28.806Z,22.56
2023-04-05T20:37:24.622Z,22.56
2023-04-05T20:40:09.841Z,22.56
2023-04-05T20:43:24.277Z,22.37
2023-04-05T20:46:05.292Z,22.58
2023-04-05T20:48:56.229Z,22.58
2023-04-05T20:55:08.861Z,22.59
2023-04-05T20:57:59.346Z,22.61
2023-04-05T21:03:53.887Z,22.63
2023-04-05T21:13:04.251Z,22.66
2023-04-05T21:15:24.552Z,22.66
2023-04-05T21:18:15.770Z,22.69
2023-04-05T21:20:47.377Z,22.69
2023-04-05T21:23:17.289Z,22.70
2023-04-05T21:25:47.425Z,22.71
2023-04-05T21:34:23.500Z,22.79
2023-04-05T21:43:21.250Z,22.78
2023-04-05T21:46:12.299Z,22.81
2023-04-05T21:49:10.118Z,22.82
2023-04-05T21:55:39.154Z,22.85
2023-04-05T21:58:22.809Z,22.87
2023-04-05T22:04:02.575Z,22.91
2023-04-05T22:09:22.770Z,22.95
2023-04-05T22:11:52.809Z,22.97
2023-04-05T22:14:22.957Z,22.99
2023-04-05T22:20:07.988Z,23.03
2023-04-05T22:23:02.138Z,23.07
2023-04-05T22:25:32.536Z,23.04
2023-04-05T22:31:04.149Z,23.18
2023-04-05T22:33:34.216Z,23.02
2023-04-05T22:36:04.606Z,23.16
2023-04-05T22:38:34.603Z,23.18
2023-04-05T22:41:06.880Z,23.20
2023-04-05T22:43:37.470Z,23.23
2023-04-05T22:46:50.443Z,23.24
2023-04-05T22:49:37.623Z,23.25
2023-04-05T22:52:39.600Z,23.29
2023-04-05T22:55:47.842Z,23.30
2023-04-05T22:59:10.456Z,23.33
2023-04-05T23:01:47.820Z,23.34
2023-04-05T23:05:09.713Z,23.37
2023-04-05T23:07:54.721Z,23.38
2023-04-05T23:10:43.599Z,23.40
2023-04-05T23:20:21.346Z,23.44
2023-04-05T23:22:51.412Z,23.46
2023-04-05T23:25:21.828Z,23.47
2023-04-05T23:32:03.486Z,23.50
2023-04-05T23:40:58.293Z,23.56
2023-04-05T23:44:10.544Z,23.57
2023-04-05T23:46:41.120Z,23.59
2023-04-05T23:49:31.417Z,23.60
2023-04-05T23:55:32.862Z,23.62
2023-04-05T23:58:28.069Z,23.63
